createdAt,value
2023-05-25T00:01:03.081Z,9.10
2023-05-25T00:03:32.204Z,9.10
2023-05-25T00:06:01.738Z,9.10
2023-05-25T00:08:29.589Z,9.10
2023-05-25T00:10:56.336Z,9.10
2023-05-25T00:13:23.220Z,9.10
2023-05-25T00:15:50.505Z,9.20
2023-05-25T00:18:18.548Z,9.20
2023-05-25T00:20:45.907Z,9.20
2023-05-25T00:23:12.700Z,9.20
2023-05-25T00:25:39.472Z,9.30
2023-05-25T00:28:06.383Z,9.20
2023-05-25T00:30:33.134Z,9.20
2023-05-25T00:33:01.633Z,9.30
2023-05-25T00:35:28.524Z,9.20
2023-05-25T00:37:55.567Z,9.20
2023-05-25T00:40:22.591Z,9.20
2023-05-25T00:42:49.333Z,9.20
2023-05-25T00:45:16.166Z,9.20
2023-05-25T00:47:44.300Z,9.10
2023-05-25T00:50:15.127Z,9.10
2023-05-25T00:52:42.127Z,9.10
2023-05-25T00:55:11.664Z,9.10
2023-05-25T00:57:41.430Z,9.00
2023-05-25T01:00:11.498Z,9.00
2023-05-25T01:02:40.954Z,9.00
2023-05-25T01:05:10.679Z,9.00
2023-05-25T01:07:38.081Z,9.00
2023-05-25T01:10:10.221Z,8.90
2023-05-25T01:12:39.036Z,8.90
2023-05-25T01:15:06.439Z,8.90
2023-05-25T01:17:38.159Z,8.90
2023-05-25T01:20:13.163Z,8.90
2023-05-25T01:23:07.091Z,8.90
2023-05-25T01:25:40.234Z,8.90
2023-05-25T01:28:09.944Z,8.90
2023-05-25T01:30:38.001Z,8.80
2023-05-25T01:33:07.167Z,8.80
2023-05-25T01:35:35.363Z,8.80
2023-05-25T01:38:02.310Z,8.80
2023-05-25T01:40:29.325Z,8.80
2023-05-25T01:42:56.203Z,8.80
2023-05-25T01:45:23.542Z,8.70
2023-05-25T01:48:13.080Z,8.70
2023-05-25T01:51:00.298Z,8.70
2023-05-25T01:53:31.190Z,8.70
2023-05-25T01:56:04.985Z,8.70
2023-05-25T01:58:41.988Z,8.60
2023-05-25T02:01:10.064Z,8.60
2023-05-25T02:03:38.303Z,8.60
2023-05-25T02:06:05.180Z,8.60
2023-05-25T02:08:31.898Z,8.50
2023-05-25T02:10:58.622Z,8.50
2023-05-25T02:13:25.374Z,8.50
2023-05-25T02:15:52.869Z,8.40
2023-05-25T02:18:19.718Z,8.40
2023-05-25T02:20:47.594Z,8.40
2023-05-25T02:23:14.369Z,8.30
2023-05-25T02:25:42.902Z,8.30
2023-05-25T02:28:09.815Z,8.30
2023-05-25T02:30:36.474Z,8.30
2023-05-25T02:33:03.219Z,8.30
2023-05-25T02:35:29.894Z,8.20
2023-05-25T02:37:56.779Z,8.20
2023-05-25T02:40:23.984Z,8.20
2023-05-25T02:42:50.636Z,8.20
2023-05-25T02:45:17.355Z,8.10
2023-05-25T02:47:44.151Z,8.10
2023-05-25T02:50:11.172Z,8.10
2023-05-25T02:52:37.928Z,8.10
2023-05-25T02:55:06.051Z,8.00
2023-05-25T02:57:32.757Z,8.00
2023-05-25T02:59:59.392Z,8.00
2023-05-25T03:02:26.118Z,8.00
2023-05-25T03:04:55.691Z,8.00
2023-05-25T03:07:22.399Z,8.00
2023-05-25T03:09:49.084Z,8.00
2023-05-25T03:12:16.053Z,8.00
2023-05-25T03:14:42.704Z,8.00
2023-05-25T03:17:09.479Z,8.00
2023-05-25T03:19:36.184Z,8.00
2023-05-25T03:22:03.869Z,7.90
2023-05-25T03:24:30.587Z,7.90
2023-05-25T03:26:57.360Z,7.90
2023-05-25T03:29:24.086Z,8.00
2023-05-25T03:31:50.865Z,7.90
2023-05-25T03:34:17.661Z,7.90
2023-05-25T03:36:45.996Z,7.90
2023-05-25T03:39:13.241Z,8.00
2023-05-25T03:41:39.877Z,8.00
2023-05-25T03:44:06.705Z,8.00
2023-05-25T03:46:33.341Z,8.00
2023-05-25T03:49:00.158Z,8.10
2023-05-25T03:51:27.974Z,8.10
2023-05-25T03:53:54.629Z,8.10
2023-05-25T03:56:21.517Z,8.10
2023-05-25T03:58:48.140Z,8.20
2023-05-25T04:01:16.700Z,8.10
2023-05-25T04:03:43.598Z,8.20
2023-05-25T04:06:11.511Z,8.30
2023-05-25T04:08:41.149Z,8.30
2023-05-25T04:11:07.884Z,8.30
2023-05-25T04:13:36.364Z,8.40
2023-05-25T04:16:03.203Z,8.40
2023-05-25T04:18:29.999Z,8.50
2023-05-25T04:20:57.647Z,8.50
2023-05-25T04:23:24.326Z,8.50
2023-05-25T04:25:51.311Z,8.70
2023-05-25T04:28:18.987Z,8.70
2023-05-25T04:30:45.956Z,8.70
2023-05-25T04:33:12.793Z,8.80
2023-05-25T04:35:40.801Z,8.90
2023-05-25T04:38:07.568Z,9.00
2023-05-25T04:40:35.590Z,9.10
2023-05-25T04:43:03.426Z,9.20
2023-05-25T04:45:32.084Z,9.30
2023-05-25T04:48:01.500Z,9.40
2023-05-25T04:50:28.648Z,9.50
2023-05-25T04:52:55.401Z,9.60
2023-05-25T04:55:22.146Z,9.70
2023-05-25T04:57:48.873Z,9.80
2023-05-25T05:00:16.708Z,9.90
2023-05-25T05:02:44.076Z,9.90
2023-05-25T05:05:10.934Z,10.00
2023-05-25T05:07:38.174Z,10.10
2023-05-25T05:10:05.729Z,10.10
2023-05-25T05:12:32.446Z,10.20
2023-05-25T05:14:59.167Z,10.20
2023-05-25T05:17:26.558Z,10.30
2023-05-25T05:19:53.503Z,10.30
2023-05-25T05:22:20.204Z,10.40
2023-05-25T05:24:46.962Z,10.40
2023-05-25T05:27:14.947Z,10.50
2023-05-25T05:29:42.470Z,10.50
2023-05-25T05:32:09.276Z,10.60
2023-05-25T05:34:36.310Z,10.60
2023-05-25T05:37:02.985Z,10.70
2023-05-25T05:39:29.803Z,10.70
2023-05-25T05:41:56.510Z,10.70
2023-05-25T05:44:26.901Z,10.80
2023-05-25T05:47:00.819Z,10.90
2023-05-25T05:49:28.832Z,10.90
2023-05-25T05:51:55.757Z,10.90
2023-05-25T05:54:22.520Z,11.00
2023-05-25T05:56:49.632Z,11.10
2023-05-25T05:59:16.408Z,11.10
2023-05-25T06:01:43.413Z,11.30
2023-05-25T06:04:10.055Z,11.30
2023-05-25T06:06:37.669Z,11.40
2023-05-25T06:09:06.952Z,11.50
2023-05-25T06:11:37.642Z,11.50
2023-05-25T06:14:04.307Z,11.60
2023-05-25T06:16:31.244Z,11.60
2023-05-25T06:18:58.160Z,11.70
2023-05-25T06:21:24.928Z,11.80
2023-05-25T06:23:51.717Z,11.90
2023-05-25T06:26:18.443Z,12.00
2023-05-25T06:28:46.850Z,12.10
2023-05-25T06:31:13.552Z,12.10
2023-05-25T06:33:40.427Z,12.20
2023-05-25T06:36:07.757Z,12.20
2023-05-25T06:38:34.423Z,12.30
2023-05-25T06:41:03.496Z,12.50
2023-05-25T06:43:32.066Z,12.60
2023-05-25T06:45:58.982Z,12.70
2023-05-25T06:48:25.748Z,12.80
2023-05-25T06:50:52.397Z,13.10
2023-05-25T06:53:19.144Z,13.40
2023-05-25T06:55:45.990Z,13.60
2023-05-25T06:58:13.301Z,13.80
2023-05-25T07:00:40.113Z,14.00
2023-05-25T07:03:06.976Z,14.20
2023-05-25T07:05:33.793Z,14.40
2023-05-25T07:08:00.427Z,14.50
2023-05-25T07:10:27.054Z,14.60
2023-05-25T07:12:53.832Z,14.80
2023-05-25T07:15:21.935Z,14.80
2023-05-25T07:17:48.598Z,14.90
2023-05-25T07:20:15.494Z,15.00
2023-05-25T07:22:43.528Z,15.00
2023-05-25T07:25:10.369Z,15.20
2023-05-25T07:27:37.056Z,15.30
2023-05-25T07:30:07.378Z,15.40
2023-05-25T07:32:34.198Z,15.50
2023-05-25T07:35:01.618Z,15.50
2023-05-25T07:37:28.229Z,15.60
2023-05-25T07:39:54.968Z,15.70
2023-05-25T07:42:21.820Z,15.80
2023-05-25T07:44:48.857Z,15.90
2023-05-25T07:47:15.592Z,16.00
2023-05-25T07:49:42.366Z,16.20
2023-05-25T07:52:09.221Z,16.30
2023-05-25T07:54:40.200Z,16.40
2023-05-25T07:57:07.973Z,16.50
2023-05-25T07:59:34.994Z,16.70
2023-05-25T08:02:02.043Z,16.90
2023-05-25T08:04:29.036Z,17.10
2023-05-25T08:06:55.781Z,17.10
2023-05-25T08:09:22.569Z,17.20
2023-05-25T08:11:49.390Z,17.20
2023-05-25T08:14:16.889Z,17.30
2023-05-25T08:16:43.867Z,17.30
2023-05-25T08:19:10.523Z,17.30
2023-05-25T08:21:37.823Z,17.40
2023-05-25T08:24:05.181Z,17.40
2023-05-25T08:26:41.735Z,17.50
2023-05-25T08:29:19.400Z,17.50
2023-05-25T08:31:49.527Z,17.70
2023-05-25T08:34:19.148Z,17.70
2023-05-25T08:36:46.142Z,17.70
2023-05-25T08:39:13.278Z,17.70
2023-05-25T08:41:43.675Z,17.80
2023-05-25T08:44:11.129Z,17.80
2023-05-25T08:46:37.909Z,17.90
2023-05-25T08:49:12.925Z,18.00
2023-05-25T08:51:47.949Z,18.20
2023-05-25T08:54:17.803Z,18.30
2023-05-25T08:56:51.398Z,18.20
2023-05-25T08:59:34.363Z,18.10
2023-05-25T09:02:05.952Z,18.10
2023-05-25T09:04:34.788Z,18.00
2023-05-25T09:07:10.354Z,18.00
2023-05-25T09:09:39.005Z,18.10
2023-05-25T09:12:06.712Z,18.20
2023-05-25T09:14:34.551Z,18.20
2023-05-25T09:17:01.303Z,18.10
2023-05-25T09:19:28.066Z,18.00
2023-05-25T09:22:03.138Z,18.10
2023-05-25T09:24:41.564Z,18.30
2023-05-25T09:27:11.988Z,18.60
2023-05-25T09:29:38.712Z,18.70
2023-05-25T09:32:06.827Z,18.50
2023-05-25T09:34:34.074Z,18.50
2023-05-25T09:37:04.841Z,18.50
2023-05-25T09:39:31.886Z,18.40
2023-05-25T09:41:58.837Z,18.40
2023-05-25T09:44:26.894Z,18.50
2023-05-25T09:46:53.593Z,18.50
2023-05-25T09:49:21.400Z,18.50
2023-05-25T09:54:29.722Z,18.90
2023-05-25T09:56:56.389Z,19.00
2023-05-25T09:59:23.644Z,19.30
2023-05-25T10:01:55.355Z,19.30
2023-05-25T10:04:22.251Z,19.40
2023-05-25T10:06:52.186Z,19.20
2023-05-25T10:09:20.424Z,19.10
2023-05-25T10:11:51.333Z,19.00
2023-05-25T10:14:27.278Z,19.00
2023-05-25T10:16:59.331Z,19.10
2023-05-25T10:19:32.978Z,19.30
2023-05-25T10:22:08.292Z,19.50
2023-05-25T10:24:46.038Z,19.90
2023-05-25T10:29:52.922Z,20.30
2023-05-25T10:32:19.834Z,20.60
2023-05-25T10:34:48.142Z,20.80
2023-05-25T10:37:16.087Z,21.00
2023-05-25T10:39:46.283Z,20.80
2023-05-25T10:42:13.327Z,20.40
2023-05-25T10:44:43.473Z,20.20
2023-05-25T10:47:10.738Z,20.00
2023-05-25T10:49:55.506Z,20.30
2023-05-25T10:52:26.468Z,20.60
2023-05-25T10:54:56.526Z,21.00
2023-05-25T10:57:25.410Z,21.20
2023-05-25T10:59:55.507Z,21.50
2023-05-25T11:02:25.198Z,21.60
2023-05-25T11:05:26.976Z,21.70
2023-05-25T11:07:58.262Z,21.80
2023-05-25T11:10:45.028Z,22.20
2023-05-25T11:13:38.984Z,22.30
2023-05-25T11:16:15.188Z,22.40
2023-05-25T11:18:43.639Z,22.40
2023-05-25T11:21:18.814Z,22.50
2023-05-25T11:23:59.677Z,22.30
2023-05-25T11:26:29.909Z,22.70
2023-05-25T11:28:58.961Z,22.90
2023-05-25T11:31:38.355Z,23.10
2023-05-25T11:34:07.074Z,23.80
2023-05-25T11:36:37.128Z,24.10
2023-05-25T11:39:11.728Z,23.40
2023-05-25T11:41:56.231Z,23.70
2023-05-25T11:44:31.186Z,24.10
2023-05-25T11:47:02.056Z,24.30
2023-05-25T11:49:29.122Z,24.10
2023-05-25T11:51:57.548Z,23.40
2023-05-25T11:54:29.267Z,23.60
2023-05-25T11:56:59.000Z,23.70
2023-05-25T11:59:28.671Z,24.20
2023-05-25T12:02:00.972Z,24.10
2023-05-25T12:04:28.786Z,24.10
2023-05-25T12:07:06.509Z,24.30
2023-05-25T12:09:34.002Z,24.80
2023-05-25T12:12:03.211Z,24.90
2023-05-25T12:14:30.630Z,24.30
2023-05-25T12:16:57.887Z,24.20
2023-05-25T12:19:24.950Z,23.70
2023-05-25T12:21:52.048Z,23.30
2023-05-25T12:24:19.245Z,23.40
2023-05-25T12:26:50.732Z,23.80
2023-05-25T12:29:17.574Z,24.00
2023-05-25T12:31:44.356Z,24.20
2023-05-25T12:34:19.275Z,24.50
2023-05-25T12:36:53.461Z,24.70
2023-05-25T12:39:29.214Z,24.60
2023-05-25T12:41:59.706Z,25.10
2023-05-25T12:44:34.701Z,25.10
2023-05-25T12:47:21.449Z,25.70
2023-05-25T12:49:52.878Z,25.90
2023-05-25T12:52:49.519Z,26.00
2023-05-25T12:55:27.246Z,25.90
2023-05-25T12:57:59.280Z,25.70
2023-05-25T13:00:37.037Z,26.20
2023-05-25T13:03:05.310Z,26.50
2023-05-25T13:05:34.207Z,26.50
2023-05-25T13:08:01.970Z,26.30
2023-05-25T13:10:29.870Z,26.50
2023-05-25T13:12:58.339Z,26.50
2023-05-25T13:15:26.979Z,26.60
2023-05-25T13:17:54.444Z,26.30
2023-05-25T13:20:22.884Z,26.10
2023-05-25T13:22:50.921Z,26.00
2023-05-25T13:25:18.220Z,25.60
2023-05-25T13:27:48.987Z,24.90
2023-05-25T13:30:16.689Z,24.80
2023-05-25T13:32:44.277Z,24.90
2023-05-25T13:35:18.397Z,25.00
2023-05-25T13:37:48.282Z,25.20
2023-05-25T13:40:15.167Z,25.10
2023-05-25T13:42:41.944Z,24.70
2023-05-25T13:45:09.325Z,24.80
2023-05-25T13:47:36.024Z,24.60
2023-05-25T13:50:02.773Z,24.40
2023-05-25T13:52:29.798Z,24.80
2023-05-25T13:54:56.484Z,25.40
2023-05-25T13:57:23.169Z,25.10
2023-05-25T13:59:49.829Z,25.00
2023-05-25T14:02:16.649Z,25.10
2023-05-25T14:04:43.455Z,25.40
2023-05-25T14:07:11.062Z,25.10
2023-05-25T14:09:37.848Z,24.50
2023-05-25T14:12:04.849Z,24.90
2023-05-25T14:14:32.788Z,25.30
2023-05-25T14:17:01.297Z,25.40
2023-05-25T14:19:28.557Z,25.20
2023-05-25T14:24:25.088Z,25.70
2023-05-25T14:26:51.831Z,25.80
2023-05-25T14:29:18.486Z,26.00
2023-05-25T14:31:46.103Z,26.40
2023-05-25T14:34:12.810Z,26.30
2023-05-25T14:36:39.577Z,26.10
2023-05-25T14:39:06.253Z,25.50
2023-05-25T14:41:32.899Z,25.80
2023-05-25T14:43:59.720Z,25.70
2023-05-25T14:46:27.122Z,25.50
2023-05-25T14:48:53.801Z,25.70
2023-05-25T14:51:20.529Z,26.30
2023-05-25T14:53:47.237Z,26.70
2023-05-25T14:56:13.897Z,26.60
2023-05-25T14:58:40.667Z,27.60
2023-05-25T15:01:07.339Z,28.30
2023-05-25T15:03:34.128Z,28.00
2023-05-25T15:06:00.886Z,27.30
2023-05-25T15:08:27.560Z,26.80
2023-05-25T15:10:54.264Z,26.30
2023-05-25T15:13:22.605Z,25.60
2023-05-25T15:15:56.099Z,24.80
2023-05-25T15:18:23.088Z,23.70
2023-05-25T15:20:49.973Z,23.00
2023-05-25T15:23:16.831Z,22.80
2023-05-25T15:25:43.641Z,22.50
2023-05-25T15:28:10.507Z,22.80
2023-05-25T15:30:37.243Z,23.20
2023-05-25T15:33:04.002Z,23.80
2023-05-25T15:35:33.473Z,24.10
2023-05-25T15:38:01.323Z,24.60
2023-05-25T15:40:28.341Z,25.10
2023-05-25T15:42:55.102Z,25.40
2023-05-25T15:45:21.876Z,25.40
2023-05-25T15:47:49.004Z,25.10
2023-05-25T15:50:16.255Z,25.10
2023-05-25T15:52:43.030Z,25.10
2023-05-25T15:55:09.939Z,24.90
2023-05-25T15:57:36.573Z,24.70
2023-05-25T16:00:05.609Z,24.60
2023-05-25T16:02:32.740Z,24.50
2023-05-25T16:04:59.503Z,24.00
2023-05-25T16:07:26.573Z,24.10
2023-05-25T16:09:53.225Z,24.20
2023-05-25T16:12:24.739Z,24.10
2023-05-25T16:14:52.075Z,24.30
2023-05-25T16:17:18.910Z,24.30
2023-05-25T16:19:47.969Z,24.10
2023-05-25T16:22:14.697Z,23.90
2023-05-25T16:24:41.441Z,23.90
2023-05-25T16:27:08.080Z,23.90
2023-05-25T16:29:34.825Z,24.00
2023-05-25T16:32:01.602Z,24.20
2023-05-25T16:34:28.371Z,24.20
2023-05-25T16:36:55.040Z,24.30
2023-05-25T16:39:21.718Z,24.30
2023-05-25T16:41:50.175Z,24.40
2023-05-25T16:44:17.589Z,24.40
2023-05-25T16:46:44.540Z,24.30
2023-05-25T16:49:11.243Z,24.20
2023-05-25T16:51:37.922Z,24.10
2023-05-25T16:54:04.745Z,23.90
2023-05-25T16:56:31.796Z,24.00
2023-05-25T16:58:58.429Z,23.60
2023-05-25T17:01:25.143Z,23.20
2023-05-25T17:03:52.012Z,22.70
2023-05-25T17:06:18.833Z,22.50
2023-05-25T17:08:46.026Z,21.80
2023-05-25T17:11:12.700Z,21.60
2023-05-25T17:13:39.380Z,21.60
2023-05-25T17:16:06.380Z,21.60
2023-05-25T17:18:33.075Z,21.60
2023-05-25T17:21:00.139Z,21.70
2023-05-25T17:23:26.944Z,21.90
2023-05-25T17:25:53.571Z,21.70
2023-05-25T17:28:20.260Z,21.70
2023-05-25T17:30:48.589Z,21.70
2023-05-25T17:33:15.626Z,21.60
2023-05-25T17:35:42.330Z,21.30
2023-05-25T17:38:09.008Z,21.30
2023-05-25T17:40:35.734Z,21.30
2023-05-25T17:43:02.418Z,21.40
2023-05-25T17:45:29.127Z,21.50
2023-05-25T17:47:56.388Z,21.60
2023-05-25T17:50:23.112Z,21.60
2023-05-25T17:52:49.801Z,21.40
2023-05-25T17:55:16.610Z,21.50
2023-05-25T17:57:43.338Z,21.50
2023-05-25T18:00:10.538Z,21.30
2023-05-25T18:02:37.484Z,21.20
2023-05-25T18:05:04.527Z,21.00
2023-05-25T18:07:31.182Z,20.90
2023-05-25T18:09:57.836Z,20.60
2023-05-25T18:12:24.599Z,20.40
2023-05-25T18:14:51.261Z,20.30
2023-05-25T18:17:17.998Z,20.30
2023-05-25T18:19:44.937Z,20.20
2023-05-25T18:22:11.662Z,20.10
2023-05-25T18:24:38.278Z,20.10
2023-05-25T18:27:05.162Z,20.00
2023-05-25T18:29:31.959Z,19.70
2023-05-25T18:31:58.720Z,19.60
2023-05-25T18:34:25.640Z,19.60
2023-05-25T18:36:52.289Z,19.60
2023-05-25T18:39:19.273Z,19.60
2023-05-25T18:41:46.012Z,19.40
2023-05-25T18:44:13.024Z,19.30
2023-05-25T18:46:41.911Z,19.20
2023-05-25T18:49:08.697Z,19.10
2023-05-25T18:51:36.347Z,18.90
2023-05-25T18:54:03.213Z,18.80
2023-05-25T18:56:29.877Z,18.70
2023-05-25T18:58:57.103Z,18.60
2023-05-25T19:01:25.601Z,18.50
2023-05-25T19:03:52.603Z,18.40
2023-05-25T19:06:19.488Z,18.40
2023-05-25T19:08:46.248Z,18.30
2023-05-25T19:11:14.478Z,18.20
2023-05-25T19:13:41.250Z,18.10
2023-05-25T19:16:08.599Z,18.00
2023-05-25T19:18:35.422Z,17.90
2023-05-25T19:21:02.687Z,17.80
2023-05-25T19:23:29.558Z,17.70
2023-05-25T19:25:56.314Z,17.70
2023-05-25T19:28:23.034Z,17.50
2023-05-25T19:30:49.656Z,17.50
2023-05-25T19:33:16.367Z,17.40
2023-05-25T19:35:43.661Z,17.30
2023-05-25T19:38:10.991Z,17.20
2023-05-25T19:40:37.676Z,17.30
2023-05-25T19:43:04.372Z,17.40
2023-05-25T19:45:31.105Z,18.10
2023-05-25T19:47:57.868Z,18.50
2023-05-25T19:50:28.062Z,18.80
2023-05-25T19:52:54.648Z,19.00
2023-05-25T19:55:21.418Z,18.90
2023-05-25T19:57:48.034Z,18.90
2023-05-25T20:00:25.564Z,18.90
2023-05-25T20:02:53.300Z,18.60
2023-05-25T20:05:20.164Z,18.10
2023-05-25T20:07:47.288Z,17.70
2023-05-25T20:10:14.020Z,17.30
2023-05-25T20:12:41.060Z,16.80
2023-05-25T20:15:08.157Z,16.50
2023-05-25T20:17:34.889Z,16.30
2023-05-25T20:20:01.820Z,16.00
2023-05-25T20:22:28.606Z,15.90
2023-05-25T20:24:58.239Z,15.70
2023-05-25T20:27:25.265Z,15.60
2023-05-25T20:29:52.069Z,15.40
2023-05-25T20:32:18.793Z,15.30
2023-05-25T20:34:45.598Z,15.20
2023-05-25T20:37:12.352Z,15.10
2023-05-25T20:39:39.287Z,15.00
2023-05-25T20:42:06.782Z,14.90
2023-05-25T20:44:33.543Z,14.90
2023-05-25T20:47:00.347Z,14.90
2023-05-25T20:49:26.992Z,14.90
2023-05-25T20:51:53.636Z,14.80
2023-05-25T20:54:20.455Z,14.70
2023-05-25T20:56:48.205Z,14.60
2023-05-25T20:59:14.906Z,14.50
2023-05-25T21:01:41.700Z,14.40
2023-05-25T21:04:09.131Z,14.30
2023-05-25T21:06:36.505Z,14.10
2023-05-25T21:09:03.923Z,14.00
2023-05-25T21:11:30.627Z,14.00
2023-05-25T21:13:57.277Z,13.90
2023-05-25T21:16:23.922Z,13.80
2023-05-25T21:18:50.902Z,13.70
2023-05-25T21:21:17.682Z,13.60
2023-05-25T21:23:44.337Z,13.60
2023-05-25T21:26:11.037Z,13.50
2023-05-25T21:28:37.740Z,13.40
2023-05-25T21:31:04.569Z,13.30
2023-05-25T21:33:35.652Z,13.30
2023-05-25T21:36:03.813Z,13.20
2023-05-25T21:38:30.671Z,13.10
2023-05-25T21:40:58.691Z,13.10
2023-05-25T21:43:27.487Z,13.00
2023-05-25T21:45:54.145Z,13.00
2023-05-25T21:48:22.286Z,12.90
2023-05-25T21:50:52.957Z,12.90
2023-05-25T21:53:20.860Z,12.90
2023-05-25T21:55:48.396Z,12.80
2023-05-25T21:58:17.422Z,12.80
2023-05-25T22:00:44.374Z,12.80
2023-05-25T22:03:11.324Z,12.80
2023-05-25T22:05:38.206Z,12.80
2023-05-25T22:08:05.481Z,12.80
2023-05-25T22:10:32.421Z,12.80
2023-05-25T22:12:59.173Z,12.80
2023-05-25T22:15:26.126Z,12.80
2023-05-25T22:17:53.104Z,12.70
2023-05-25T22:20:19.889Z,12.70
2023-05-25T22:22:46.676Z,12.70
2023-05-25T22:25:13.472Z,12.70
2023-05-25T22:27:40.394Z,12.70
2023-05-25T22:30:07.589Z,12.70
2023-05-25T22:32:34.550Z,12.70
2023-05-25T22:35:01.927Z,12.70
2023-05-25T22:37:28.588Z,12.70
2023-05-25T22:39:55.283Z,12.70
2023-05-25T22:42:21.943Z,12.60
2023-05-25T22:44:49.376Z,12.60
2023-05-25T22:47:16.060Z,12.60
2023-05-25T22:49:44.147Z,12.70
2023-05-25T22:52:11.432Z,12.70
2023-05-25T22:54:38.148Z,12.70
2023-05-25T22:57:05.631Z,12.60
2023-05-25T22:59:32.303Z,12.60
2023-05-25T23:01:58.950Z,12.60
2023-05-25T23:04:25.661Z,12.60
2023-05-25T23:06:52.288Z,12.50
2023-05-25T23:09:19.071Z,12.50
2023-05-25T23:11:46.004Z,12.50
2023-05-25T23:14:12.714Z,12.40
2023-05-25T23:16:39.467Z,12.40
2023-05-25T23:19:06.346Z,12.30
2023-05-25T23:21:33.852Z,12.30
2023-05-25T23:24:00.631Z,12.20
2023-05-25T23:26:28.482Z,12.20
2023-05-25T23:28:55.265Z,12.10
2023-05-25T23:31:22.084Z,12.10
2023-05-25T23:33:48.878Z,12.00
2023-05-25T23:36:15.619Z,12.00
2023-05-25T23:38:42.680Z,11.90
2023-05-25T23:41:09.342Z,11.80
2023-05-25T23:43:36.106Z,11.80
2023-05-25T23:46:02.835Z,11.70
2023-05-25T23:48:29.503Z,11.70
2023-05-25T23:50:56.182Z,11.60
2023-05-25T23:53:22.985Z,11.50
2023-05-25T23:55:49.722Z,11.50
2023-05-25T23:58:16.666Z,11.40
